Time;durP1;ratioP1;P1;durP2;ratioP2;P2;SDS_P1;SDS_P2;PMS_P1;PMS_P2;Temp;Humidity;BMP_temperature;BMP_pressure;BME280_temperature;BME280_humidity;BME280_pressure;Samples;Min_cycle;Max_cycle;Signal;HPM_P1;HPM_P2
2022/04/13 00:00:43;;;;;;;14.05;7.00;;;10.90;99.90;;;;;;5069222;28;20047;-67
2022/04/13 00:03:11;;;;;;;10.55;6.53;;;10.80;99.90;;;;;;5069228;28;20051;-68
2022/04/13 00:05:39;;;;;;;14.25;6.85;;;10.80;99.90;;;;;;5069233;28;20048;-69
2022/04/13 00:08:08;;;;;;;14.55;7.03;;;10.80;99.90;;;;;;5066197;28;20060;-69
2022/04/13 00:10:37;;;;;;;12.85;6.97;;;10.80;99.90;;;;;;5068378;28;20212;-66
2022/04/13 00:13:05;;;;;;;11.90;6.50;;;10.80;99.90;;;;;;5067198;28;20060;-66
2022/04/13 00:15:33;;;;;;;12.18;7.18;;;10.80;99.90;;;;;;5053526;28;20060;-68
2022/04/13 00:18:05;;;;;;;17.23;7.53;;;10.80;99.90;;;;;;5055614;28;20503;-67
2022/04/13 00:20:34;;;;;;;15.13;6.93;;;10.80;99.90;;;;;;5055286;28;20400;-66
2022/04/13 00:23:02;;;;;;;12.63;6.95;;;10.80;99.90;;;;;;5072863;28;20488;-64
2022/04/13 00:25:33;;;;;;;11.52;6.80;;;10.80;99.90;;;;;;5071417;28;20048;-65
2022/04/13 00:28:01;;;;;;;12.90;6.82;;;10.80;99.90;;;;;;5063173;28;20040;-62
2022/04/13 00:30:29;;;;;;;12.85;6.95;;;10.80;99.90;;;;;;5072471;28;20048;-62
2022/04/13 00:32:56;;;;;;;14.60;7.30;;;10.80;99.90;;;;;;5072362;28;20519;-61
2022/04/13 00:35:25;;;;;;;13.27;7.00;;;10.80;99.90;;;;;;5071109;28;20055;-62
2022/04/13 00:37:53;;;;;;;18.35;7.15;;;10.70;99.90;;;;;;5072239;28;20043;-61
2022/04/13 00:40:20;;;;;;;13.10;7.65;;;10.70;99.90;;;;;;5054452;28;20408;-61
2022/04/13 00:42:48;;;;;;;15.63;7.63;;;10.70;99.90;;;;;;5066786;28;20412;-61
2022/04/13 00:45:16;;;;;;;15.30;8.00;;;10.70;99.90;;;;;;5051994;28;20060;-61
2022/04/13 00:47:45;;;;;;;14.90;8.18;;;10.70;99.90;;;;;;5052447;28;20072;-61
2022/04/13 00:50:13;;;;;;;16.08;8.75;;;10.70;99.90;;;;;;5071044;28;20049;-61
2022/04/13 00:52:45;;;;;;;26.92;9.00;;;10.70;99.90;;;;;;5072177;28;20040;-62
2022/04/13 00:55:14;;;;;;;17.30;9.02;;;10.70;99.90;;;;;;5070738;28;20044;-62
2022/04/13 00:57:44;;;;;;;17.73;9.20;;;10.80;99.90;;;;;;5064402;28;20041;-61
2022/04/13 01:00:12;;;;;;;13.20;7.88;;;10.70;99.90;;;;;;5071023;28;20059;-62
2022/04/13 01:02:42;;;;;;;18.02;9.02;;;10.70;99.90;;;;;;5069643;28;20476;-61
2022/04/13 01:05:11;;;;;;;21.17;9.02;;;10.70;99.90;;;;;;5067287;28;20056;-62
2022/04/13 01:07:40;;;;;;;23.65;9.95;;;10.70;99.90;;;;;;5070385;28;20055;-62
2022/04/13 01:10:09;;;;;;;16.02;9.55;;;10.70;99.90;;;;;;5070943;28;20063;-61
2022/04/13 01:12:37;;;;;;;15.27;7.70;;;10.70;99.90;;;;;;5065942;28;20045;-61
2022/04/13 01:15:05;;;;;;;14.30;7.63;;;10.70;99.90;;;;;;5051827;28;20045;-61
2022/04/13 01:17:34;;;;;;;12.98;7.70;;;10.70;99.90;;;;;;5050691;28;20052;-62
2022/04/13 01:20:05;;;;;;;18.77;6.88;;;10.70;99.90;;;;;;5049267;28;20057;-61
2022/04/13 01:22:33;;;;;;;21.35;8.30;;;10.70;99.90;;;;;;5049322;28;20052;-61
2022/04/13 01:25:01;;;;;;;17.80;7.35;;;10.60;99.90;;;;;;5051588;28;20045;-61
2022/04/13 01:27:28;;;;;;;15.50;7.10;;;10.70;99.90;;;;;;5065538;28;20049;-61
2022/04/13 01:29:56;;;;;;;15.27;6.97;;;10.60;99.90;;;;;;5069552;28;20041;-61
2022/04/13 01:32:24;;;;;;;14.05;6.50;;;10.60;99.90;;;;;;5052880;28;20053;-61
2022/04/13 01:34:53;;;;;;;15.40;5.85;;;10.60;99.90;;;;;;5052545;28;20424;-61
2022/04/13 01:37:22;;;;;;;13.82;6.30;;;10.60;99.90;;;;;;5052914;28;20496;-61
2022/04/13 01:39:50;;;;;;;8.60;4.70;;;10.60;99.90;;;;;;5071548;28;20484;-61
2022/04/13 01:42:18;;;;;;;11.55;5.35;;;10.60;99.90;;;;;;5072776;28;20063;-62
2022/04/13 01:44:47;;;;;;;10.82;5.00;;;10.60;99.90;;;;;;5052721;28;20049;-61
2022/04/13 01:47:16;;;;;;;8.38;4.80;;;10.60;99.90;;;;;;5050730;28;20502;-62
2022/04/13 01:49:44;;;;;;;11.85;5.25;;;10.60;99.90;;;;;;5052645;28;20037;-61
2022/04/13 01:52:12;;;;;;;9.18;5.25;;;10.60;99.90;;;;;;5052709;28;20044;-62
2022/04/13 01:54:39;;;;;;;12.05;5.50;;;10.50;99.90;;;;;;5052790;28;20052;-61
2022/04/13 01:57:07;;;;;;;11.18;5.60;;;10.50;99.90;;;;;;5068400;28;20036;-62
2022/04/13 01:59:35;;;;;;;12.35;5.60;;;10.50;99.90;;;;;;5071712;28;20059;-61
2022/04/13 02:02:05;;;;;;;10.77;6.10;;;10.50;99.90;;;;;;5056267;28;20048;-62
2022/04/13 02:04:34;;;;;;;14.23;6.03;;;10.60;99.90;;;;;;5052454;28;20048;-65
2022/04/13 02:07:03;;;;;;;15.18;6.22;;;10.50;99.90;;;;;;5052375;28;20045;-61
2022/04/13 02:09:30;;;;;;;14.15;5.57;;;10.50;99.90;;;;;;5052355;28;20500;-61
2022/04/13 02:11:58;;;;;;;9.60;5.55;;;10.50;99.90;;;;;;5052614;28;20531;-61
2022/04/13 02:14:26;;;;;;;8.88;5.60;;;10.60;99.90;;;;;;5052005;28;20044;-60
2022/04/13 02:16:53;;;;;;;11.95;5.68;;;10.60;99.90;;;;;;5052170;28;20048;-61
2022/04/13 02:19:21;;;;;;;15.15;5.75;;;10.60;99.90;;;;;;5052423;28;20045;-61
2022/04/13 02:21:49;;;;;;;10.68;5.82;;;10.60;99.90;;;;;;5052261;28;20049;-62
2022/04/13 02:24:16;;;;;;;9.82;5.18;;;10.50;99.90;;;;;;5052266;28;20045;-65
2022/04/13 02:26:44;;;;;;;11.52;5.40;;;10.50;99.90;;;;;;5064652;28;20053;-65
2022/04/13 02:29:11;;;;;;;8.98;5.07;;;10.50;99.90;;;;;;5072104;28;20043;-66
2022/04/13 02:31:39;;;;;;;9.85;4.97;;;10.50;99.90;;;;;;5071764;28;20060;-68
2022/04/13 02:34:07;;;;;;;11.80;5.50;;;10.50;99.90;;;;;;5071872;28;20063;-65
2022/04/13 02:36:34;;;;;;;11.07;5.50;;;10.50;99.90;;;;;;5071823;28;20051;-68
2022/04/13 02:39:02;;;;;;;14.80;5.45;;;10.60;99.90;;;;;;5070623;28;20044;-66
2022/04/13 02:41:30;;;;;;;10.43;5.20;;;10.50;99.90;;;;;;5071779;28;20052;-68
2022/04/13 02:43:57;;;;;;;13.18;5.53;;;10.50;99.90;;;;;;5071836;28;20056;-68
2022/04/13 02:46:25;;;;;;;10.50;5.40;;;10.60;99.90;;;;;;5071683;28;20480;-69
2022/04/13 02:48:53;;;;;;;10.48;5.78;;;10.50;99.90;;;;;;5071661;28;20037;-66
2022/04/13 02:51:20;;;;;;;14.63;6.88;;;10.60;99.90;;;;;;5071582;28;20067;-68
2022/04/13 02:53:48;;;;;;;14.95;6.03;;;10.60;99.90;;;;;;5071610;28;20040;-68
2022/04/13 02:56:17;;;;;;;13.88;5.97;;;10.50;99.90;;;;;;5070049;28;20403;-69
2022/04/13 02:58:44;;;;;;;12.32;6.15;;;10.50;99.90;;;;;;5057015;28;20056;-68
2022/04/13 03:01:12;;;;;;;11.43;5.63;;;10.60;99.90;;;;;;5051412;28;20045;-69
2022/04/13 03:03:40;;;;;;;11.48;6.03;;;10.60;99.90;;;;;;5050337;28;20048;-69
2022/04/13 03:06:07;;;;;;;12.93;6.38;;;10.60;99.90;;;;;;5051745;28;20053;-65
2022/04/13 03:08:35;;;;;;;9.70;5.93;;;10.60;99.90;;;;;;5051478;28;20052;-67
2022/04/13 03:11:03;;;;;;;12.63;5.88;;;10.60;99.90;;;;;;5051378;28;20060;-68
2022/04/13 03:13:30;;;;;;;11.80;6.40;;;10.60;99.90;;;;;;5051193;28;20416;-68
2022/04/13 03:15:58;;;;;;;11.73;5.45;;;10.50;99.90;;;;;;5051257;28;20060;-68
2022/04/13 03:18:26;;;;;;;12.38;6.20;;;10.60;99.90;;;;;;5051430;28;20037;-67
2022/04/13 03:20:53;;;;;;;13.85;6.50;;;10.50;99.90;;;;;;5051404;28;20227;-68
2022/04/13 03:23:21;;;;;;;18.30;6.65;;;10.50;99.90;;;;;;5068023;28;20044;-66
2022/04/13 03:25:49;;;;;;;14.13;6.35;;;10.50;99.90;;;;;;5069984;28;20055;-68
2022/04/13 03:28:16;;;;;;;11.40;5.88;;;10.60;99.90;;;;;;5071419;28;20045;-68
2022/04/13 03:30:45;;;;;;;12.57;5.95;;;10.60;99.90;;;;;;5071292;28;20049;-66
2022/04/13 03:33:13;;;;;;;10.57;5.80;;;10.50;99.90;;;;;;5071715;28;20486;-69
2022/04/13 03:35:40;;;;;;;17.60;7.35;;;10.60;99.90;;;;;;5071401;28;20052;-69
2022/04/13 03:38:09;;;;;;;13.85;6.35;;;10.50;99.90;;;;;;5071364;28;20056;-69
2022/04/13 03:40:36;;;;;;;18.00;7.93;;;10.60;99.90;;;;;;5071400;28;20067;-64
2022/04/13 03:43:04;;;;;;;14.18;6.03;;;10.50;99.90;;;;;;5071285;28;20045;-62
2022/04/13 03:45:33;;;;;;;14.70;7.07;;;10.60;99.90;;;;;;5071851;28;20059;-62
2022/04/13 03:48:00;;;;;;;12.55;6.47;;;10.60;99.90;;;;;;5075226;28;20476;-62
2022/04/13 03:50:28;;;;;;;9.73;5.93;;;10.60;99.90;;;;;;5074991;28;20044;-61
2022/04/13 03:52:55;;;;;;;9.57;5.65;;;10.60;99.90;;;;;;5061328;28;20045;-62
2022/04/13 03:55:24;;;;;;;18.92;7.60;;;10.50;99.90;;;;;;5054910;28;20072;-63
2022/04/13 03:57:51;;;;;;;12.30;7.03;;;10.50;99.90;;;;;;5054825;28;20049;-62
2022/04/13 04:00:19;;;;;;;12.32;6.85;;;10.50;99.90;;;;;;5054659;28;20164;-61
2022/04/13 04:02:47;;;;;;;14.10;6.75;;;10.50;99.90;;;;;;5054888;28;20404;-62
2022/04/13 04:05:15;;;;;;;12.93;7.43;;;10.50;99.90;;;;;;5054694;28;20385;-61
2022/04/13 04:07:42;;;;;;;22.35;7.47;;;10.50;99.90;;;;;;5053476;28;20059;-62
2022/04/13 04:10:11;;;;;;;16.45;7.55;;;10.40;99.90;;;;;;5053607;28;20053;-61
2022/04/13 04:12:40;;;;;;;15.50;7.05;;;10.40;99.90;;;;;;5053346;28;20049;-61
2022/04/13 04:15:09;;;;;;;15.73;7.50;;;10.50;99.90;;;;;;5054517;28;20045;-62
2022/04/13 04:17:37;;;;;;;13.52;7.15;;;10.50;99.90;;;;;;5054675;28;20424;-61
2022/04/13 04:20:06;;;;;;;17.92;7.60;;;10.40;99.90;;;;;;5054375;28;20056;-61
2022/04/13 04:22:35;;;;;;;14.73;7.75;;;10.40;99.90;;;;;;5064021;28;20044;-61
2022/04/13 04:25:04;;;;;;;17.58;8.73;;;10.40;99.90;;;;;;5074141;28;20059;-60
2022/04/13 04:27:32;;;;;;;14.40;8.50;;;10.40;99.90;;;;;;5074380;28;20041;-61
2022/04/13 04:30:00;;;;;;;22.05;9.38;;;10.30;99.90;;;;;;5074324;28;20053;-61
2022/04/13 04:32:28;;;;;;;18.77;9.38;;;10.30;99.90;;;;;;5074072;28;20071;-61
2022/04/13 04:34:57;;;;;;;18.70;9.55;;;10.30;99.90;;;;;;5074278;28;20063;-61
2022/04/13 04:37:24;;;;;;;19.00;10.07;;;10.30;99.90;;;;;;5072979;28;20053;-62
2022/04/13 04:39:52;;;;;;;17.92;10.50;;;10.30;99.90;;;;;;5074205;28;20082;-63
2022/04/13 04:42:20;;;;;;;20.63;10.88;;;10.30;99.90;;;;;;5074074;28;20057;-62
2022/04/13 04:44:48;;;;;;;24.40;10.90;;;10.30;99.90;;;;;;5073975;28;20392;-61
2022/04/13 04:47:16;;;;;;;17.00;10.18;;;10.20;99.90;;;;;;5069962;28;20055;-60
2022/04/13 04:49:43;;;;;;;24.83;11.43;;;10.20;99.90;;;;;;5069427;28;20047;-61
2022/04/13 04:52:11;;;;;;;19.52;11.13;;;10.20;99.90;;;;;;5063400;28;20037;-62
2022/04/13 04:54:39;;;;;;;22.02;11.15;;;10.20;99.90;;;;;;5050532;28;20484;-62
2022/04/13 04:57:08;;;;;;;18.08;10.85;;;10.20;99.90;;;;;;5050684;28;20386;-62
2022/04/13 04:59:35;;;;;;;20.17;11.57;;;10.20;99.90;;;;;;5069245;28;20044;-62
2022/04/13 05:02:04;;;;;;;23.38;11.63;;;10.20;99.90;;;;;;5064601;28;20492;-63
2022/04/13 05:04:31;;;;;;;25.90;12.30;;;10.30;99.90;;;;;;5048694;28;20060;-67
2022/04/13 05:06:59;;;;;;;23.33;12.05;;;10.30;99.90;;;;;;5049199;28;20041;-65
2022/04/13 05:09:28;;;;;;;22.50;12.95;;;10.30;99.90;;;;;;5071274;28;20044;-65
2022/04/13 05:12:02;;;;;;;22.70;12.38;;;10.20;99.90;;;;;;5070697;28;20059;-67
2022/04/13 05:14:29;;;;;;;27.48;12.32;;;10.30;99.90;;;;;;5071763;28;20049;-64
2022/04/13 05:16:57;;;;;;;27.15;12.98;;;10.30;99.90;;;;;;5071625;28;20048;-63
2022/04/13 05:19:29;;;;;;;25.55;11.65;;;10.30;99.90;;;;;;5065501;28;20041;-63
2022/04/13 05:21:57;;;;;;;26.35;12.88;;;10.30;99.90;;;;;;5058365;28;20049;-66
2022/04/13 05:24:25;;;;;;;31.42;13.07;;;10.30;99.90;;;;;;5071613;28;20041;-64
2022/04/13 05:26:52;;;;;;;27.88;12.48;;;10.30;99.90;;;;;;5068322;28;20057;-66
2022/04/13 05:29:23;;;;;;;26.63;12.38;;;10.30;99.90;;;;;;5068072;28;20055;-63
2022/04/13 05:31:50;;;;;;;23.88;12.30;;;10.40;99.90;;;;;;5067912;28;20063;-63
2022/04/13 05:34:18;;;;;;;25.23;12.10;;;10.40;99.90;;;;;;5070183;28;20036;-65
2022/04/13 05:36:45;;;;;;;21.02;11.82;;;10.40;99.90;;;;;;5071469;28;20052;-64
2022/04/13 05:39:13;;;;;;;23.35;11.77;;;10.40;99.90;;;;;;5071015;28;20048;-64
2022/04/13 05:41:41;;;;;;;19.65;11.35;;;10.40;99.90;;;;;;5069149;28;20049;-61
2022/04/13 05:44:09;;;;;;;23.20;11.73;;;10.40;99.90;;;;;;5068042;28;20487;-63
2022/04/13 05:46:36;;;;;;;22.05;11.38;;;10.40;99.90;;;;;;5069414;28;20040;-63
2022/04/13 05:49:04;;;;;;;20.83;10.55;;;10.40;99.90;;;;;;5065726;28;20048;-67
2022/04/13 05:51:32;;;;;;;25.52;11.07;;;10.40;99.90;;;;;;5052179;28;20048;-64
2022/04/13 05:54:00;;;;;;;19.27;11.20;;;10.40;99.90;;;;;;5065902;28;20055;-61
2022/04/13 05:56:27;;;;;;;24.23;10.75;;;10.50;99.90;;;;;;5067659;28;20542;-66
2022/04/13 05:58:56;;;;;;;23.60;10.20;;;10.50;99.90;;;;;;5070708;28;20044;-66
2022/04/13 06:01:24;;;;;;;20.92;10.63;;;10.50;99.90;;;;;;5067733;28;20045;-63
2022/04/13 06:03:51;;;;;;;16.98;9.35;;;10.50;99.90;;;;;;5056694;28;20480;-64
2022/04/13 06:06:19;;;;;;;21.67;9.93;;;10.50;99.90;;;;;;5049163;28;20067;-64
2022/04/13 06:08:47;;;;;;;16.45;9.88;;;10.60;99.90;;;;;;5062920;28;20045;-64
2022/04/13 06:11:14;;;;;;;19.55;9.88;;;10.50;99.90;;;;;;5070324;28;20060;-66
2022/04/13 06:13:42;;;;;;;17.08;9.15;;;10.50;99.90;;;;;;5070327;28;20492;-66
2022/04/13 06:16:10;;;;;;;19.10;10.00;;;10.50;99.90;;;;;;5070650;28;20052;-63
2022/04/13 06:18:38;;;;;;;14.73;8.80;;;10.50;99.90;;;;;;5064827;28;20053;-65
2022/04/13 06:21:06;;;;;;;16.65;8.82;;;10.50;99.90;;;;;;5049511;28;20377;-69
2022/04/13 06:23:39;;;;;;;19.45;10.07;;;10.50;99.90;;;;;;5050433;28;20052;-65
2022/04/13 06:26:07;;;;;;;24.42;10.07;;;10.60;99.90;;;;;;5050611;28;20056;-65
2022/04/13 06:28:34;;;;;;;18.77;9.57;;;10.50;99.90;;;;;;5063414;28;20416;-63
2022/04/13 06:31:02;;;;;;;17.20;8.55;;;10.60;99.90;;;;;;5068824;28;20055;-66
2022/04/13 06:33:30;;;;;;;22.40;9.45;;;10.60;99.90;;;;;;5064733;28;20056;-70
2022/04/13 06:35:58;;;;;;;17.00;8.63;;;10.60;99.90;;;;;;5050087;28;20045;-65
2022/04/13 06:38:25;;;;;;;15.38;8.48;;;10.60;99.90;;;;;;5061926;28;20059;-68
2022/04/13 06:40:55;;;;;;;17.50;8.27;;;10.70;99.90;;;;;;5067993;28;20044;-68
2022/04/13 06:43:23;;;;;;;15.73;8.75;;;10.70;99.90;;;;;;5065973;28;20051;-63
2022/04/13 06:45:53;;;;;;;18.77;8.68;;;10.70;99.90;;;;;;5065985;28;20063;-67
2022/04/13 06:48:21;;;;;;;;;;;10.70;99.90;;;;;;5067277;28;20044;-65
2022/04/13 06:50:48;;;;;;;17.20;8.60;;;10.70;99.90;;;;;;5050364;28;20407;-66
2022/04/13 06:53:17;;;;;;;16.48;7.75;;;10.80;99.90;;;;;;5049356;28;20527;-64
2022/04/13 06:55:47;;;;;;;15.38;8.32;;;10.80;99.90;;;;;;5048962;28;20060;-64
2022/04/13 06:58:16;;;;;;;14.90;7.45;;;10.90;99.90;;;;;;5060498;28;20044;-62
2022/04/13 07:00:44;;;;;;;12.43;7.30;;;10.90;99.90;;;;;;5067639;28;20043;-61
2022/04/13 07:03:12;;;;;;;15.75;8.25;;;11.00;99.90;;;;;;5064222;28;20509;-60
2022/04/13 07:05:41;;;;;;;13.25;8.45;;;11.00;99.90;;;;;;5046510;28;20064;-63
2022/04/13 07:08:09;;;;;;;17.10;7.20;;;11.20;99.90;;;;;;5054763;28;20045;-61
2022/04/13 07:10:37;;;;;;;15.63;7.53;;;11.30;99.90;;;;;;5049376;28;20060;-60
2022/04/13 07:13:11;;;;;;;15.13;7.13;;;11.40;99.90;;;;;;5046086;28;20049;-60
2022/04/13 07:15:40;;;;;;;12.02;7.22;;;11.40;99.90;;;;;;5045019;28;20044;-60
2022/04/13 07:18:08;;;;;;;12.23;6.40;;;11.50;99.90;;;;;;5058555;28;20514;-60
2022/04/13 07:20:36;;;;;;;15.77;6.25;;;11.50;99.90;;;;;;5050732;28;20045;-61
2022/04/13 07:23:04;;;;;;;11.35;5.55;;;11.50;99.90;;;;;;5071403;28;20048;-60
2022/04/13 07:25:32;;;;;;;12.50;6.18;;;11.50;99.90;;;;;;5072512;28;20392;-60
2022/04/13 07:28:00;;;;;;;13.80;6.47;;;11.50;99.90;;;;;;5072623;28;20048;-60
2022/04/13 07:30:28;;;;;;;11.32;5.45;;;11.60;99.90;;;;;;5035902;28;20057;-61
2022/04/13 07:33:01;;;;;;;8.88;5.47;;;11.60;99.90;;;;;;5052288;28;20045;-61
2022/04/13 07:35:31;;;;;;;11.82;5.32;;;11.60;99.90;;;;;;5065544;28;20056;-61
2022/04/13 07:37:58;;;;;;;7.05;4.13;;;11.60;99.90;;;;;;5061384;28;20052;-61
2022/04/13 07:40:26;;;;;;;9.23;3.78;;;11.70;99.90;;;;;;5073460;28;20112;-61
2022/04/13 07:42:54;;;;;;;9.77;3.78;;;11.70;99.90;;;;;;5073357;28;20056;-61
2022/04/13 07:45:22;;;;;;;7.45;4.07;;;11.70;99.90;;;;;;5072237;28;20041;-61
2022/04/13 07:47:50;;;;;;;5.43;2.80;;;11.80;99.90;;;;;;5072260;28;20053;-61
2022/04/13 07:50:17;;;;;;;9.73;4.20;;;11.80;99.90;;;;;;5058236;28;20045;-61
2022/04/13 07:52:45;;;;;;;4.95;2.88;;;11.90;99.90;;;;;;5070043;28;20049;-61
2022/04/13 07:55:13;;;;;;;6.93;3.78;;;11.90;99.90;;;;;;5073183;28;20060;-65
2022/04/13 07:57:41;;;;;;;5.70;3.33;;;12.00;99.90;;;;;;5072918;28;20045;-63
2022/04/13 08:00:10;;;;;;;9.02;4.22;;;12.00;99.90;;;;;;5073042;28;20040;-67
2022/04/13 08:02:42;;;;;;;7.72;3.45;;;12.10;99.90;;;;;;5071994;28;20048;-66
2022/04/13 08:05:14;;;;;;;13.17;4.33;;;12.20;99.90;;;;;;5060052;28;20049;-68
2022/04/13 08:07:42;;;;;;;9.80;4.10;;;12.30;99.90;;;;;;5058591;28;20045;-63
2022/04/13 08:10:11;;;;;;;7.47;3.63;;;12.40;99.90;;;;;;5073030;28;20071;-63
2022/04/13 08:12:40;;;;;;;6.40;3.80;;;12.40;99.90;;;;;;5071581;28;20036;-70
2022/04/13 08:15:11;;;;;;;7.47;3.83;;;12.40;99.90;;;;;;5073044;28;20051;-65
2022/04/13 08:17:40;;;;;;;4.60;3.70;;;12.30;99.90;;;;;;5072821;28;20511;-69
2022/04/13 08:20:11;;;;;;;9.17;3.90;;;12.30;99.90;;;;;;5070907;28;20037;-62
2022/04/13 08:22:41;;;;;;;8.85;3.80;;;12.30;99.90;;;;;;5055920;28;20297;-63
2022/04/13 08:25:09;;;;;;;9.60;3.95;;;12.20;99.90;;;;;;5052605;28;20048;-63
2022/04/13 08:27:43;;;;;;;6.30;3.20;;;12.20;99.90;;;;;;5058144;28;20051;-61
2022/04/13 08:30:13;;;;;;;5.95;3.50;;;12.10;99.90;;;;;;5072676;28;20044;-62
2022/04/13 08:32:42;;;;;;;6.40;3.67;;;12.10;99.90;;;;;;5072331;28;20036;-63
2022/04/13 08:35:10;;;;;;;4.97;3.45;;;12.10;99.90;;;;;;5066959;28;20064;-69
2022/04/13 08:37:38;;;;;;;9.73;4.28;;;12.20;99.90;;;;;;5057386;28;20047;-70
2022/04/13 08:40:10;;;;;;;9.48;4.85;;;12.20;99.90;;;;;;5071818;28;20048;-67
2022/04/13 08:42:38;;;;;;;7.88;4.55;;;12.30;99.90;;;;;;5072555;28;20040;-67
2022/04/13 08:45:32;;;;;;;8.38;4.35;;;12.30;99.90;;;;;;5071059;28;20071;-69
2022/04/13 08:48:04;;;;;;;10.38;4.43;;;12.30;99.90;;;;;;5072011;28;20047;-63
2022/04/13 08:50:32;;;;;;;7.57;3.80;;;12.30;99.90;;;;;;5059725;28;20053;-63
2022/04/13 08:53:04;;;;;;;6.35;3.67;;;12.20;99.90;;;;;;5072229;28;20037;-62
2022/04/13 08:55:32;;;;;;;7.65;4.13;;;12.20;99.90;;;;;;5072198;28;20044;-61
2022/04/13 08:58:17;;;;;;;6.57;3.20;;;12.20;99.90;;;;;;5071751;28;20048;-62
2022/04/13 09:00:49;;;;;;;5.90;3.05;;;12.20;99.90;;;;;;5071175;28;20078;-62
2022/04/13 09:03:43;;;;;;;6.28;3.40;;;12.20;99.90;;;;;;5071818;28;20511;-61
2022/04/13 09:06:12;;;;;;;5.15;3.08;;;12.10;99.90;;;;;;5066959;28;20469;-69
2022/04/13 09:08:54;;;;;;;8.80;3.70;;;12.20;99.90;;;;;;5065148;28;20048;-67
2022/04/13 09:11:22;;;;;;;4.50;3.15;;;12.10;99.90;;;;;;5070568;28;20037;-68
2022/04/13 09:13:51;;;;;;;6.03;3.50;;;12.10;99.90;;;;;;5071729;28;20640;-67
2022/04/13 09:16:18;;;;;;;5.30;3.17;;;12.20;99.90;;;;;;5069197;28;20056;-63
2022/04/13 09:18:46;;;;;;;5.72;3.30;;;12.20;99.90;;;;;;5068604;28;20602;-69
2022/04/13 09:21:19;;;;;;;6.93;3.70;;;12.20;99.90;;;;;;5052606;28;20057;-62
2022/04/13 09:23:46;;;;;;;5.32;3.67;;;12.20;99.90;;;;;;5050545;28;20045;-62
2022/04/13 09:26:16;;;;;;;7.88;3.80;;;12.20;99.90;;;;;;5051504;28;20051;-62
2022/04/13 09:28:44;;;;;;;6.35;3.13;;;12.20;99.90;;;;;;5064172;28;20045;-62
2022/04/13 09:31:12;;;;;;;6.75;3.63;;;12.20;99.90;;;;;;5066870;28;20040;-62
2022/04/13 09:33:40;;;;;;;11.07;4.45;;;12.20;99.90;;;;;;5051305;28;20052;-62
2022/04/13 09:36:07;;;;;;;9.65;4.13;;;12.20;99.90;;;;;;5050915;28;20477;-62
2022/04/13 09:38:35;;;;;;;8.27;4.13;;;12.20;99.90;;;;;;5063820;28;20053;-64
2022/04/13 09:41:09;;;;;;;8.50;4.10;;;12.30;99.90;;;;;;5071032;28;20059;-62
2022/04/13 09:43:38;;;;;;;12.95;4.75;;;12.20;99.90;;;;;;5052892;28;20048;-65
2022/04/13 09:46:06;;;;;;;6.90;3.70;;;12.20;99.90;;;;;;5070992;28;20041;-66
2022/04/13 09:48:41;;;;;;;8.73;5.32;;;12.30;99.90;;;;;;5071186;28;20063;-67
2022/04/13 09:51:08;;;;;;;6.90;3.60;;;12.40;99.90;;;;;;5062256;28;20040;-64
2022/04/13 09:53:42;;;;;;;7.10;4.00;;;12.50;99.90;;;;;;5070890;28;20045;-66
2022/04/13 09:56:17;;;;;;;6.20;4.00;;;12.60;99.90;;;;;;5071023;28;20048;-63
2022/04/13 09:58:44;;;;;;;6.78;4.45;;;12.70;99.90;;;;;;5070360;28;20052;-64
2022/04/13 10:01:12;;;;;;;6.55;3.95;;;12.90;99.90;;;;;;5070861;28;20508;-64
2022/04/13 10:03:54;;;;;;;11.15;4.40;;;13.10;99.90;;;;;;5069455;28;20051;-64
2022/04/13 10:06:28;;;;;;;7.97;3.72;;;13.20;99.90;;;;;;5055601;28;20052;-64
2022/04/13 10:09:08;;;;;;;7.60;4.18;;;13.20;99.90;;;;;;5066244;28;20059;-64
2022/04/13 10:11:35;;;;;;;4.38;3.05;;;13.20;99.90;;;;;;5070771;28;20068;-66
2022/04/13 10:14:05;;;;;;;5.75;2.72;;;13.20;99.90;;;;;;5070698;28;20048;-64
2022/04/13 10:16:34;;;;;;;4.10;3.25;;;13.10;99.90;;;;;;5070762;28;20044;-65
2022/04/13 10:19:04;;;;;;;7.15;3.25;;;13.10;99.90;;;;;;5070588;28;20408;-64
2022/04/13 10:21:49;;;;;;;5.10;3.58;;;13.10;99.90;;;;;;5065713;28;20496;-63
2022/04/13 10:24:29;;;;;;;7.07;3.60;;;13.00;99.90;;;;;;5070378;28;20059;-65
2022/04/13 10:27:08;;;;;;;6.25;3.65;;;13.10;99.90;;;;;;5070487;28;20036;-62
2022/04/13 10:29:38;;;;;;;4.05;1.95;;;13.20;99.90;;;;;;5070339;28;20071;-62
2022/04/13 10:32:13;;;;;;;1.55;1.45;;;13.30;99.90;;;;;;5068767;28;20044;-62
2022/04/13 10:34:49;;;;;;;3.22;1.42;;;13.40;99.90;;;;;;5070018;28;20048;-62
2022/04/13 10:37:20;;;;;;;2.08;0.95;;;13.50;99.90;;;;;;5069959;28;20618;-62
2022/04/13 10:39:49;;;;;;;3.58;1.30;;;13.60;99.90;;;;;;5070250;28;20067;-63
2022/04/13 10:42:18;;;;;;;1.63;1.00;;;13.70;99.90;;;;;;5070166;28;20403;-62
2022/04/13 10:44:55;;;;;;;1.63;1.27;;;13.80;99.90;;;;;;5069946;28;20052;-63
2022/04/13 10:47:45;;;;;;;1.60;1.08;;;13.80;99.90;;;;;;5070278;28;20041;-68
2022/04/13 10:50:14;;;;;;;2.47;1.60;;;13.90;99.90;;;;;;5066220;28;20056;-67
2022/04/13 10:52:57;;;;;;;1.95;1.10;;;13.90;99.90;;;;;;5069815;28;20040;-68
2022/04/13 10:55:27;;;;;;;3.25;1.38;;;13.80;99.90;;;;;;5068570;28;20045;-69
2022/04/13 10:58:47;;;;;;;2.78;1.20;;;13.70;99.90;;;;;;5069672;28;20044;-68
2022/04/13 11:01:17;;;;;;;1.70;1.45;;;13.70;99.90;;;;;;5067746;28;20053;-67
2022/04/13 11:03:46;;;;;;;2.05;1.20;;;13.60;99.90;;;;;;5068811;28;20119;-62
2022/04/13 11:06:14;;;;;;;1.92;1.40;;;13.60;99.90;;;;;;5068564;28;20047;-63
2022/04/13 11:09:00;;;;;;;2.22;1.55;;;13.60;99.90;;;;;;5068604;28;20044;-63
2022/04/13 11:11:31;;;;;;;2.67;1.70;;;13.50;99.90;;;;;;5069732;28;20059;-62
2022/04/13 11:13:59;;;;;;;1.50;1.40;;;13.50;99.90;;;;;;5069865;28;20365;-61
2022/04/13 11:16:29;;;;;;;1.35;1.10;;;13.50;99.90;;;;;;5069927;28;20413;-61
2022/04/13 11:19:00;;;;;;;2.78;1.48;;;13.60;99.90;;;;;;5069651;28;20060;-65
2022/04/13 11:21:31;;;;;;;2.67;1.38;;;13.60;99.90;;;;;;5068247;28;20056;-62
2022/04/13 11:23:59;;;;;;;1.52;1.30;;;13.70;99.90;;;;;;5069749;28;20044;-63
2022/04/13 11:26:46;;;;;;;2.03;1.20;;;13.80;99.90;;;;;;5069861;28;20056;-63
2022/04/13 11:29:21;;;;;;;0.80;0.80;;;14.00;99.90;;;;;;5069433;28;20040;-63
2022/04/13 11:32:24;;;;;;;1.55;0.98;;;14.10;99.90;;;;;;5069674;28;20060;-63
2022/04/13 11:34:51;;;;;;;0.93;0.68;;;14.30;99.90;;;;;;5061630;28;20053;-65
2022/04/13 11:37:23;;;;;;;1.95;0.82;;;14.50;99.90;;;;;;5053106;28;20604;-64
2022/04/13 11:39:51;;;;;;;1.35;1.25;;;14.60;99.90;;;;;;5069854;28;20392;-63
2022/04/13 11:42:27;;;;;;;1.30;1.10;;;14.60;99.90;;;;;;5069564;28;20041;-62
2022/04/13 11:45:00;;;;;;;1.52;1.10;;;14.70;99.90;;;;;;5069643;28;20052;-65
2022/04/13 11:47:40;;;;;;;1.27;0.70;;;14.90;99.90;;;;;;5069551;28;20045;-69
2022/04/13 11:50:14;;;;;;;2.75;1.02;;;15.00;99.90;;;;;;5068575;28;20527;-63
2022/04/13 11:52:52;;;;;;;2.75;0.88;;;15.50;99.90;;;;;;5049120;28;20041;-62
2022/04/13 11:55:31;;;;;;;2.97;0.90;;;15.90;99.90;;;;;;5049280;28;20053;-62
2022/04/13 11:58:07;;;;;;;2.25;0.90;;;16.30;99.90;;;;;;5068295;28;20041;-62
2022/04/13 12:00:59;;;;;;;0.82;0.57;;;16.40;99.90;;;;;;5067818;28;20059;-62
2022/04/13 12:03:30;;;;;;;0.65;0.60;;;16.50;99.90;;;;;;5068124;28;20045;-62
2022/04/13 12:06:10;;;;;;;2.63;0.75;;;16.60;99.90;;;;;;5063111;28;20056;-65
2022/04/13 12:08:43;;;;;;;3.25;0.82;;;16.90;99.90;;;;;;5063867;28;20052;-68
2022/04/13 12:11:18;;;;;;;1.05;0.50;;;17.00;99.90;;;;;;5073126;28;20472;-69
2022/04/13 12:13:47;;;;;;;2.55;0.50;;;17.00;99.90;;;;;;5072858;28;20053;-68
2022/04/13 12:16:26;;;;;;;0.47;0.40;;;17.10;99.90;;;;;;5072753;28;20507;-67
2022/04/13 12:19:01;;;;;;;1.42;0.52;;;17.30;99.90;;;;;;5071213;28;20059;-64
2022/04/13 12:21:31;;;;;;;0.95;0.60;;;17.40;99.90;;;;;;5064024;28;20059;-67
2022/04/13 12:24:05;;;;;;;3.47;0.90;;;17.70;99.90;;;;;;5052857;28;20383;-65
2022/04/13 12:26:41;;;;;;;0.77;0.40;;;18.00;99.90;;;;;;5052740;28;20293;-65
2022/04/13 12:29:22;;;;;;;0.45;0.43;;;17.90;99.90;;;;;;5067836;28;20045;-68
2022/04/13 12:31:54;;;;;;;2.88;0.70;;;17.80;99.90;;;;;;5072418;28;20480;-64
2022/04/13 12:34:26;;;;;;;4.22;0.65;;;17.90;99.90;;;;;;5072690;28;20056;-64
2022/04/13 12:36:54;;;;;;;1.08;0.40;;;18.40;99.90;;;;;;5071312;28;20047;-63
2022/04/13 12:39:26;;;;;;;0.77;0.50;;;18.90;99.90;;;;;;5072278;28;20057;-69
2022/04/13 12:41:54;;;;;;;2.60;0.70;;;19.50;99.90;;;;;;5072567;28;20045;-64
2022/04/13 12:44:22;;;;;;;0.90;0.55;;;20.00;99.90;;;;;;5072420;28;20065;-63
2022/04/13 12:47:01;;;;;;;1.88;0.40;;;20.20;99.90;;;;;;5072416;28;20044;-64
2022/04/13 12:49:31;;;;;;;1.87;0.80;;;20.00;99.90;;;;;;5072230;28;20045;-69
2022/04/13 12:51:58;;;;;;;1.42;0.65;;;19.70;99.70;;;;;;5070207;28;20414;-69
2022/04/13 12:54:26;;;;;;;0.55;0.55;;;19.50;99.90;;;;;;5069976;28;20060;-66